createdAt,value
2019-03-30T00:02:20.408Z,3.04
2019-03-30T00:04:53.593Z,3.00
2019-03-30T00:07:26.902Z,3.00
2019-03-30T00:09:59.977Z,2.96
2019-03-30T00:12:33.468Z,2.90
2019-03-30T00:15:07.656Z,2.90
2019-03-30T00:17:41.085Z,2.82
2019-03-30T00:20:13.874Z,2.74
2019-03-30T00:22:47.298Z,2.69
2019-03-30T00:25:20.383Z,2.64
2019-03-30T00:27:53.273Z,2.59
2019-03-30T00:30:26.557Z,2.59
2019-03-30T00:32:59.652Z,2.58
2019-03-30T00:35:31.198Z,2.63
2019-03-30T00:38:04.293Z,2.65
2019-03-30T00:40:37.525Z,2.64
2019-03-30T00:43:08.858Z,2.62
2019-03-30T00:45:41.769Z,2.69
2019-03-30T00:48:14.886Z,2.69
2019-03-30T00:50:48.216Z,2.69
2019-03-30T00:53:21.398Z,2.78
2019-03-30T00:55:54.724Z,2.83
2019-03-30T00:58:27.699Z,2.90
2019-03-30T01:01:00.311Z,2.91
2019-03-30T01:03:33.414Z,2.93
2019-03-30T01:06:06.776Z,3.00
2019-03-30T01:08:39.850Z,3.01
2019-03-30T01:11:13.237Z,3.01
2019-03-30T01:13:46.332Z,3.01
2019-03-30T01:16:19.485Z,2.99
2019-03-30T01:18:51.474Z,3.02
2019-03-30T01:21:24.604Z,3.08
2019-03-30T01:23:57.549Z,3.08
2019-03-30T01:26:29.816Z,3.14
2019-03-30T01:29:03.747Z,3.16
2019-03-30T01:31:37.701Z,3.23
2019-03-30T01:34:11.039Z,3.35
2019-03-30T01:36:45.395Z,3.37
2019-03-30T01:39:17.167Z,3.40
2019-03-30T01:41:50.016Z,3.46
2019-03-30T01:44:23.308Z,3.45
2019-03-30T01:46:54.670Z,3.48
2019-03-30T01:49:27.754Z,3.52
2019-03-30T01:51:59.524Z,3.51
2019-03-30T01:54:32.597Z,3.50
2019-03-30T01:57:06.807Z,3.49
2019-03-30T01:59:38.049Z,3.54
2019-03-30T02:02:11.157Z,3.58
2019-03-30T02:04:42.767Z,3.59
2019-03-30T02:07:15.845Z,3.61
2019-03-30T02:09:47.524Z,3.56
2019-03-30T02:12:20.708Z,3.62
2019-03-30T02:14:52.130Z,3.62
2019-03-30T02:17:25.018Z,3.69
2019-03-30T02:19:58.487Z,3.68
2019-03-30T02:22:31.743Z,3.76
2019-03-30T02:25:04.840Z,3.83
2019-03-30T02:27:36.311Z,3.83
2019-03-30T02:30:09.180Z,3.86
2019-03-30T02:32:42.767Z,3.86
2019-03-30T02:35:15.687Z,3.90
2019-03-30T02:37:48.968Z,3.89
2019-03-30T02:40:21.504Z,3.91
2019-03-30T02:42:55.834Z,3.90
2019-03-30T02:45:27.450Z,3.92
2019-03-30T02:48:00.492Z,3.90
2019-03-30T02:50:48.615Z,3.82
2019-03-30T02:53:09.145Z,3.81
2019-03-30T02:55:41.923Z,3.80
2019-03-30T02:58:15.047Z,3.74
2019-03-30T03:00:48.429Z,3.63
2019-03-30T03:03:21.501Z,3.54
2019-03-30T03:05:54.615Z,3.46
2019-03-30T03:08:26.135Z,3.39
2019-03-30T03:10:59.207Z,3.28
2019-03-30T03:13:30.793Z,3.19
2019-03-30T03:16:04.010Z,3.11
2019-03-30T03:18:37.099Z,3.03
2019-03-30T03:21:10.196Z,2.94
2019-03-30T03:23:43.545Z,2.93
2019-03-30T03:26:16.501Z,2.82
2019-03-30T03:28:49.811Z,2.86
2019-03-30T03:31:21.301Z,2.80
2019-03-30T03:33:54.572Z,2.87
2019-03-30T03:36:27.632Z,2.81
2019-03-30T03:39:00.475Z,2.83
2019-03-30T03:41:35.305Z,2.83
2019-03-30T03:44:06.640Z,2.78
2019-03-30T03:46:39.773Z,2.73
2019-03-30T03:49:13.232Z,2.67
2019-03-30T03:51:46.571Z,2.67
2019-03-30T03:54:20.306Z,2.67
2019-03-30T03:56:53.667Z,2.66
2019-03-30T03:59:28.443Z,2.75
2019-03-30T04:02:05.532Z,2.80
2019-03-30T04:04:40.374Z,2.94
2019-03-30T04:07:14.545Z,3.02
2019-03-30T04:09:50.084Z,3.05
2019-03-30T04:12:24.981Z,3.10
2019-03-30T04:14:59.605Z,3.13
2019-03-30T04:17:32.785Z,3.21
2019-03-30T04:20:06.243Z,3.22
2019-03-30T04:22:39.388Z,3.27
2019-03-30T04:25:12.518Z,3.32
2019-03-30T04:27:45.713Z,3.29
2019-03-30T04:30:17.158Z,3.39
2019-03-30T04:33:01.169Z,3.06
2019-03-30T04:35:47.867Z,3.38
2019-03-30T04:38:21.169Z,3.31
2019-03-30T04:40:55.118Z,3.33
2019-03-30T04:43:28.453Z,3.47
2019-03-30T04:46:01.396Z,3.39
2019-03-30T04:48:34.741Z,3.49
2019-03-30T04:51:08.109Z,3.56
2019-03-30T04:53:41.465Z,3.44
2019-03-30T04:56:14.663Z,3.68
2019-03-30T04:58:47.977Z,3.77
2019-03-30T05:01:21.364Z,3.87
2019-03-30T05:03:52.563Z,3.94
2019-03-30T05:06:26.314Z,4.01
2019-03-30T05:08:59.324Z,4.09
2019-03-30T05:11:32.716Z,4.15
2019-03-30T05:14:05.781Z,4.18
2019-03-30T05:16:38.732Z,4.17
2019-03-30T05:19:11.672Z,4.19
2019-03-30T05:21:44.993Z,4.25
2019-03-30T05:24:18.297Z,4.58
2019-03-30T05:26:49.600Z,5.33
2019-03-30T05:29:22.747Z,6.14
2019-03-30T05:31:56.675Z,6.83
2019-03-30T05:34:29.965Z,7.87
2019-03-30T05:37:01.479Z,8.66
2019-03-30T05:39:34.588Z,9.28
2019-03-30T05:42:07.729Z,9.75
2019-03-30T05:44:39.360Z,10.46
2019-03-30T05:47:12.298Z,11.14
2019-03-30T05:49:45.685Z,11.74
2019-03-30T05:52:26.357Z,12.16
2019-03-30T05:54:53.951Z,12.71
2019-03-30T05:57:26.895Z,13.49
2019-03-30T06:00:00.033Z,13.86
2019-03-30T06:02:33.026Z,13.99
2019-03-30T06:05:06.842Z,14.52
2019-03-30T06:07:40.239Z,15.12
2019-03-30T06:10:12.732Z,14.48
2019-03-30T06:12:45.875Z,14.39
2019-03-30T06:15:18.974Z,14.41
2019-03-30T06:17:52.400Z,14.16
2019-03-30T06:20:25.552Z,14.22
2019-03-30T06:22:58.790Z,13.22
2019-03-30T06:25:31.854Z,13.55
2019-03-30T06:28:05.026Z,13.72
2019-03-30T06:30:38.134Z,14.06
2019-03-30T06:33:09.710Z,14.37
2019-03-30T06:35:42.685Z,14.71
2019-03-30T06:38:14.583Z,14.98
2019-03-30T06:40:47.695Z,14.79
2019-03-30T06:43:19.301Z,14.81
2019-03-30T06:45:53.320Z,15.14
2019-03-30T06:48:26.345Z,15.01
2019-03-30T06:50:59.312Z,15.03
2019-03-30T06:53:32.404Z,14.09
2019-03-30T06:56:05.172Z,14.56
2019-03-30T06:58:38.564Z,14.07
2019-03-30T07:01:15.468Z,14.22
2019-03-30T07:03:48.665Z,14.33
2019-03-30T07:06:23.042Z,14.46
2019-03-30T07:08:58.127Z,14.59
2019-03-30T07:11:34.121Z,14.93
2019-03-30T07:14:07.353Z,14.02
2019-03-30T07:16:42.481Z,14.59
2019-03-30T07:19:16.152Z,14.07
2019-03-30T07:21:49.232Z,13.79
2019-03-30T07:24:22.389Z,14.03
2019-03-30T07:26:55.403Z,14.25
2019-03-30T07:29:28.252Z,14.27
2019-03-30T07:32:01.322Z,14.45
2019-03-30T07:34:34.956Z,13.93
2019-03-30T07:37:08.447Z,14.43
2019-03-30T07:39:41.210Z,14.39
2019-03-30T07:42:14.287Z,14.67
2019-03-30T07:44:47.817Z,14.65
2019-03-30T07:47:20.475Z,14.90
2019-03-30T07:49:53.540Z,14.68
2019-03-30T07:52:26.728Z,14.68
2019-03-30T07:54:58.437Z,15.20
2019-03-30T07:57:32.684Z,15.38
2019-03-30T08:00:04.162Z,15.26
2019-03-30T08:02:37.704Z,14.97
2019-03-30T08:05:10.790Z,14.83
2019-03-30T08:07:44.611Z,15.09
2019-03-30T08:10:21.351Z,14.59
2019-03-30T08:12:54.567Z,14.92
2019-03-30T08:15:26.191Z,15.16
2019-03-30T08:17:59.776Z,15.30
2019-03-30T08:20:33.267Z,15.29
2019-03-30T08:23:06.585Z,15.34
2019-03-30T08:25:39.934Z,15.20
2019-03-30T08:28:11.843Z,15.07
2019-03-30T08:30:45.231Z,14.85
2019-03-30T08:33:18.558Z,14.84
2019-03-30T08:35:49.949Z,15.02
2019-03-30T08:38:22.684Z,15.39
2019-03-30T08:40:55.683Z,14.96
2019-03-30T08:43:28.734Z,15.29
2019-03-30T08:46:00.239Z,14.75
2019-03-30T08:48:33.297Z,14.93
2019-03-30T08:51:06.323Z,15.45
2019-03-30T08:53:53.757Z,15.71
2019-03-30T08:56:14.536Z,15.72
2019-03-30T08:58:46.080Z,15.70
2019-03-30T09:01:19.223Z,15.56
2019-03-30T09:03:52.456Z,15.18
2019-03-30T09:06:26.032Z,15.14
2019-03-30T09:08:59.108Z,15.61
2019-03-30T09:11:32.314Z,15.28
2019-03-30T09:14:03.992Z,15.41
2019-03-30T09:16:37.127Z,15.63
2019-03-30T09:19:08.783Z,15.71
2019-03-30T09:21:41.819Z,15.70
2019-03-30T09:24:14.866Z,16.18
2019-03-30T09:26:47.927Z,16.31
2019-03-30T09:29:20.646Z,16.33
2019-03-30T09:31:54.008Z,16.56
2019-03-30T09:34:25.725Z,16.55
2019-03-30T09:36:58.643Z,15.89
2019-03-30T09:39:32.036Z,15.77
2019-03-30T09:42:05.151Z,15.53
2019-03-30T09:44:38.873Z,15.86
2019-03-30T09:47:12.036Z,16.36
2019-03-30T09:49:43.651Z,16.61
2019-03-30T09:52:16.507Z,17.03
2019-03-30T09:54:50.026Z,16.87
2019-03-30T09:57:23.688Z,16.38
2019-03-30T09:59:56.698Z,15.93
2019-03-30T10:02:30.012Z,15.58
2019-03-30T10:05:03.455Z,15.37
2019-03-30T10:07:36.499Z,15.11
2019-03-30T10:10:10.118Z,14.88
2019-03-30T10:12:43.485Z,14.60
2019-03-30T10:15:16.770Z,14.74
2019-03-30T10:17:49.986Z,14.44
2019-03-30T10:20:21.664Z,14.85
2019-03-30T10:22:54.923Z,15.67
2019-03-30T10:25:28.118Z,16.49
2019-03-30T10:28:01.666Z,16.95
2019-03-30T10:30:34.664Z,17.14
2019-03-30T10:33:08.042Z,17.00
2019-03-30T10:35:41.224Z,16.84
2019-03-30T10:38:12.809Z,17.12
2019-03-30T10:40:45.924Z,17.18
2019-03-30T10:43:17.059Z,17.71
2019-03-30T10:45:50.127Z,18.00
2019-03-30T10:48:23.414Z,16.72
2019-03-30T10:50:54.731Z,16.59
2019-03-30T10:53:28.064Z,16.98
2019-03-30T10:56:01.109Z,17.34
2019-03-30T10:58:34.437Z,17.37
2019-03-30T11:01:07.497Z,17.86
2019-03-30T11:03:39.064Z,16.53
2019-03-30T11:06:11.785Z,15.88
2019-03-30T11:08:45.271Z,16.09
2019-03-30T11:11:18.462Z,16.11
2019-03-30T11:13:49.939Z,16.59
2019-03-30T11:16:23.281Z,17.15
2019-03-30T11:18:56.571Z,16.68
2019-03-30T11:21:28.126Z,17.64
2019-03-30T11:24:01.082Z,17.93
2019-03-30T11:26:34.251Z,18.36
2019-03-30T11:29:05.909Z,18.32
2019-03-30T11:31:37.482Z,17.62
2019-03-30T11:34:08.765Z,18.31
2019-03-30T11:36:40.187Z,17.77
2019-03-30T11:39:11.554Z,18.11
2019-03-30T11:41:42.613Z,17.86
2019-03-30T11:44:14.181Z,18.57
2019-03-30T11:46:45.805Z,19.06
2019-03-30T11:49:17.011Z,18.57
2019-03-30T11:51:48.168Z,17.88
2019-03-30T11:54:19.520Z,17.67
2019-03-30T11:56:50.938Z,17.73
2019-03-30T11:59:22.520Z,17.97
2019-03-30T12:01:53.759Z,18.10
2019-03-30T12:04:25.032Z,18.33
2019-03-30T12:06:56.700Z,18.19
2019-03-30T12:09:27.994Z,18.75
2019-03-30T12:11:59.546Z,18.93
2019-03-30T12:14:31.004Z,19.24
2019-03-30T12:17:02.334Z,19.42
2019-03-30T12:19:33.853Z,19.06
2019-03-30T12:22:05.379Z,19.18
2019-03-30T12:24:37.071Z,19.27
2019-03-30T12:27:08.451Z,19.38
2019-03-30T12:29:40.050Z,19.56
2019-03-30T12:32:11.309Z,20.16
2019-03-30T12:34:42.854Z,19.83
2019-03-30T12:37:14.201Z,19.96
2019-03-30T12:39:45.536Z,19.74
2019-03-30T12:42:16.764Z,20.27
2019-03-30T12:44:49.175Z,21.49
2019-03-30T12:47:20.589Z,22.27
2019-03-30T12:49:52.357Z,21.39
2019-03-30T12:52:26.427Z,22.14
2019-03-30T12:54:56.970Z,22.78
2019-03-30T12:57:28.528Z,22.87
2019-03-30T12:59:59.971Z,23.25
2019-03-30T13:02:31.217Z,23.73
2019-03-30T13:05:02.427Z,24.71
2019-03-30T13:07:34.336Z,25.33
2019-03-30T13:10:05.974Z,25.84
2019-03-30T13:12:37.384Z,24.41
2019-03-30T13:15:08.649Z,24.59
2019-03-30T13:17:40.225Z,24.43
2019-03-30T13:20:11.653Z,24.05
2019-03-30T13:22:43.363Z,23.98
2019-03-30T13:25:14.587Z,24.23
2019-03-30T13:27:46.166Z,24.12
2019-03-30T13:30:17.960Z,24.33
2019-03-30T13:32:53.582Z,23.46
2019-03-30T13:35:25.230Z,24.35
2019-03-30T13:37:56.639Z,23.94
2019-03-30T13:40:28.408Z,23.88
2019-03-30T13:43:00.797Z,23.93
2019-03-30T13:45:32.354Z,23.80
2019-03-30T13:48:03.641Z,23.49
2019-03-30T13:50:35.088Z,23.01
2019-03-30T13:53:06.765Z,23.24
2019-03-30T13:55:38.126Z,22.95
2019-03-30T13:58:09.594Z,23.08
2019-03-30T14:00:40.974Z,22.11
2019-03-30T14:03:12.723Z,22.14
2019-03-30T14:05:44.177Z,22.46
2019-03-30T14:08:15.932Z,22.59
2019-03-30T14:10:46.914Z,22.90
2019-03-30T14:13:18.510Z,22.05
2019-03-30T14:15:49.955Z,21.42
2019-03-30T14:18:21.336Z,21.72
2019-03-30T14:20:52.789Z,21.92
2019-03-30T14:23:24.175Z,21.17
2019-03-30T14:25:55.753Z,21.21
2019-03-30T14:28:27.070Z,21.32
2019-03-30T14:30:59.529Z,21.01
2019-03-30T14:33:31.158Z,21.13
2019-03-30T14:36:02.392Z,21.00
2019-03-30T14:38:33.542Z,21.05
2019-03-30T14:41:04.870Z,20.83
2019-03-30T14:43:36.296Z,20.62
2019-03-30T14:46:07.814Z,20.08
2019-03-30T14:48:42.368Z,20.30
2019-03-30T14:51:13.888Z,19.54
2019-03-30T14:53:45.538Z,19.26
2019-03-30T14:56:16.868Z,18.98
2019-03-30T14:58:48.169Z,18.67
2019-03-30T15:01:19.679Z,18.77
2019-03-30T15:03:51.442Z,18.43
2019-03-30T15:06:22.447Z,17.97
2019-03-30T15:08:53.632Z,17.23
2019-03-30T15:11:24.940Z,16.87
2019-03-30T15:13:56.217Z,16.53
2019-03-30T15:16:27.633Z,16.36
2019-03-30T15:18:58.816Z,16.12
2019-03-30T15:21:30.344Z,15.85
2019-03-30T15:24:02.273Z,15.70
2019-03-30T15:26:33.254Z,15.46
2019-03-30T15:29:04.817Z,15.37
2019-03-30T15:31:36.269Z,15.31
2019-03-30T15:34:10.594Z,15.13
2019-03-30T15:36:41.423Z,14.93
2019-03-30T15:39:13.055Z,14.79
2019-03-30T15:41:44.465Z,14.81
2019-03-30T15:44:16.263Z,14.65
2019-03-30T15:46:47.640Z,14.68
2019-03-30T15:49:19.078Z,14.69
2019-03-30T15:51:49.934Z,14.70
2019-03-30T15:54:20.786Z,14.67
2019-03-30T15:56:51.793Z,14.45
2019-03-30T15:59:23.334Z,14.47
2019-03-30T16:01:54.847Z,14.34
2019-03-30T16:04:27.440Z,14.20
2019-03-30T16:06:58.544Z,14.25
2019-03-30T16:09:29.920Z,14.13
2019-03-30T16:12:01.271Z,14.09
2019-03-30T16:14:32.834Z,14.15
2019-03-30T16:17:03.821Z,14.03
2019-03-30T16:19:36.152Z,13.95
2019-03-30T16:22:07.064Z,13.86
2019-03-30T16:24:38.324Z,13.79
2019-03-30T16:27:09.688Z,13.87
2019-03-30T16:29:40.915Z,13.52
2019-03-30T16:32:12.253Z,13.43
2019-03-30T16:34:44.269Z,13.50
2019-03-30T16:37:15.687Z,13.45
2019-03-30T16:39:47.479Z,13.32
2019-03-30T16:42:18.592Z,13.23
2019-03-30T16:44:49.996Z,13.26
2019-03-30T16:47:21.500Z,13.18
2019-03-30T16:49:52.780Z,13.00
2019-03-30T16:52:24.194Z,12.88
2019-03-30T16:54:55.904Z,12.89
2019-03-30T16:57:27.127Z,12.77
2019-03-30T16:59:58.205Z,12.76
2019-03-30T17:02:29.798Z,12.65
2019-03-30T17:05:00.891Z,12.56
2019-03-30T17:07:32.519Z,12.51
2019-03-30T17:10:03.787Z,12.45
2019-03-30T17:12:35.134Z,12.45
2019-03-30T17:15:06.665Z,12.60
2019-03-30T17:17:38.111Z,12.41
2019-03-30T17:20:09.193Z,12.42
2019-03-30T17:22:40.771Z,12.31
2019-03-30T17:25:11.905Z,12.31
2019-03-30T17:27:57.089Z,12.42
2019-03-30T17:30:17.015Z,12.32
2019-03-30T17:32:48.265Z,12.31
2019-03-30T17:35:19.645Z,12.23
2019-03-30T17:37:51.217Z,12.18
2019-03-30T17:40:22.162Z,12.10
2019-03-30T17:42:54.046Z,12.14
2019-03-30T17:45:25.641Z,11.98
2019-03-30T17:47:57.060Z,11.91
2019-03-30T17:50:28.767Z,11.78
2019-03-30T17:53:00.132Z,11.67
2019-03-30T17:55:34.026Z,11.58
2019-03-30T17:58:12.792Z,11.42
2019-03-30T18:00:37.397Z,11.35
2019-03-30T18:03:09.041Z,11.21
2019-03-30T18:05:40.608Z,11.12
2019-03-30T18:08:11.502Z,11.20
2019-03-30T18:10:42.834Z,11.16
2019-03-30T18:13:14.233Z,11.21
2019-03-30T18:15:45.880Z,11.16
2019-03-30T18:18:17.759Z,11.17
2019-03-30T18:20:49.503Z,11.17
2019-03-30T18:23:21.126Z,11.23
2019-03-30T18:25:52.386Z,11.41
2019-03-30T18:28:27.674Z,11.50
2019-03-30T18:30:57.161Z,11.41
2019-03-30T18:33:28.652Z,11.54
2019-03-30T18:35:59.969Z,11.54
2019-03-30T18:38:31.551Z,11.56
2019-03-30T18:41:02.437Z,11.51
2019-03-30T18:43:33.748Z,11.38
2019-03-30T18:46:05.184Z,11.47
2019-03-30T18:48:36.514Z,11.38
2019-03-30T18:51:07.801Z,11.33
2019-03-30T18:53:39.358Z,11.29
2019-03-30T18:56:10.786Z,10.77
2019-03-30T18:58:42.450Z,10.64
2019-03-30T19:01:13.746Z,10.70
2019-03-30T19:03:45.274Z,10.72
2019-03-30T19:06:16.635Z,10.68
2019-03-30T19:08:47.937Z,10.60
2019-03-30T19:11:19.507Z,10.60
2019-03-30T19:13:51.553Z,10.57
2019-03-30T19:16:22.823Z,10.46
2019-03-30T19:18:53.876Z,10.43
2019-03-30T19:21:25.497Z,10.36
2019-03-30T19:23:57.053Z,10.37
2019-03-30T19:26:28.405Z,10.26
2019-03-30T19:29:00.067Z,10.16
2019-03-30T19:31:31.836Z,10.04
2019-03-30T19:34:03.334Z,9.82
2019-03-30T19:36:34.690Z,9.70
2019-03-30T19:39:07.601Z,9.47
2019-03-30T19:41:38.880Z,9.29
2019-03-30T19:44:10.337Z,9.22
2019-03-30T19:46:41.640Z,9.10
2019-03-30T19:49:13.124Z,9.03
2019-03-30T19:51:44.436Z,8.99
2019-03-30T19:54:15.856Z,9.02
2019-03-30T19:56:47.425Z,8.89
2019-03-30T19:59:18.962Z,8.82
2019-03-30T20:01:50.094Z,8.70
2019-03-30T20:04:21.134Z,8.62
2019-03-30T20:06:52.680Z,8.65
2019-03-30T20:09:24.063Z,8.73
2019-03-30T20:11:55.495Z,8.71
2019-03-30T20:14:26.647Z,8.49
2019-03-30T20:16:58.204Z,8.61
2019-03-30T20:19:29.729Z,8.50
2019-03-30T20:22:01.229Z,8.58
2019-03-30T20:24:32.749Z,8.53
2019-03-30T20:27:04.151Z,8.61
2019-03-30T20:29:35.771Z,8.52
2019-03-30T20:32:29.425Z,8.30
2019-03-30T20:35:03.473Z,8.24
2019-03-30T20:37:34.998Z,8.08
2019-03-30T20:40:06.827Z,7.94
2019-03-30T20:42:38.126Z,7.76
2019-03-30T20:45:10.446Z,7.73
2019-03-30T20:47:41.953Z,7.65
2019-03-30T20:50:13.879Z,7.62
2019-03-30T20:52:45.504Z,7.54
2019-03-30T20:55:16.897Z,7.38
2019-03-30T20:57:48.408Z,7.33
2019-03-30T21:00:19.860Z,7.37
2019-03-30T21:02:51.187Z,7.32
2019-03-30T21:05:22.420Z,7.23
2019-03-30T21:07:53.627Z,7.20
2019-03-30T21:10:24.555Z,7.12
2019-03-30T21:12:55.893Z,7.17
2019-03-30T21:15:27.172Z,7.27
2019-03-30T21:17:58.618Z,7.07
2019-03-30T21:20:29.560Z,6.98
2019-03-30T21:23:00.944Z,6.77
2019-03-30T21:25:32.186Z,6.70
2019-03-30T21:28:03.545Z,6.55
2019-03-30T21:30:34.768Z,6.46
2019-03-30T21:33:06.260Z,6.36
2019-03-30T21:35:38.530Z,6.23
2019-03-30T21:38:09.927Z,6.14
2019-03-30T21:40:41.162Z,6.26
2019-03-30T21:43:12.686Z,6.23
2019-03-30T21:45:44.043Z,6.29
2019-03-30T21:48:15.554Z,6.28
2019-03-30T21:50:46.926Z,6.18
2019-03-30T21:53:18.684Z,6.12
2019-03-30T21:55:51.100Z,6.06
2019-03-30T21:58:22.401Z,6.03
2019-03-30T22:00:53.765Z,6.06
2019-03-30T22:03:25.257Z,5.91
2019-03-30T22:05:56.641Z,5.82
2019-03-30T22:08:28.374Z,5.83
2019-03-30T22:10:59.749Z,5.91
2019-03-30T22:13:31.161Z,5.86
2019-03-30T22:16:02.302Z,6.00
2019-03-30T22:18:33.815Z,6.05
2019-03-30T22:21:05.089Z,6.03
2019-03-30T22:23:36.432Z,6.08
2019-03-30T22:26:08.144Z,6.03
2019-03-30T22:28:39.546Z,5.91
2019-03-30T22:31:10.827Z,5.75
2019-03-30T22:33:42.413Z,5.61
2019-03-30T22:36:13.675Z,5.50
2019-03-30T22:38:45.240Z,5.34
2019-03-30T22:41:16.514Z,5.31
2019-03-30T22:43:47.879Z,5.27
2019-03-30T22:46:19.486Z,5.36
2019-03-30T22:48:50.958Z,5.38
2019-03-30T22:51:22.297Z,5.49
2019-03-30T22:53:56.106Z,5.58
2019-03-30T22:56:27.497Z,5.66
2019-03-30T22:58:58.800Z,5.67
2019-03-30T23:01:30.442Z,5.68
2019-03-30T23:04:01.186Z,5.63
2019-03-30T23:06:32.412Z,5.53
2019-03-30T23:09:04.210Z,5.45
2019-03-30T23:11:35.929Z,5.40
2019-03-30T23:14:07.370Z,5.35
2019-03-30T23:16:38.719Z,5.32
2019-03-30T23:19:10.291Z,5.25
2019-03-30T23:21:41.705Z,5.26
2019-03-30T23:24:13.234Z,5.23
2019-03-30T23:26:45.820Z,5.17
2019-03-30T23:29:17.199Z,5.09
2019-03-30T23:31:48.685Z,5.05
2019-03-30T23:34:20.660Z,5.10
2019-03-30T23:36:52.165Z,5.08
2019-03-30T23:39:23.428Z,5.08
2019-03-30T23:41:54.611Z,5.03
2019-03-30T23:44:25.811Z,5.00
2019-03-30T23:46:57.091Z,4.95
2019-03-30T23:49:28.236Z,4.91
2019-03-30T23:51:59.813Z,4.72
2019-03-30T23:54:31.076Z,4.62
2019-03-30T23:57:05.726Z,4.50
2019-03-30T23:59:37.045Z,4.45
